sensor_id;sensor_type;location;lat;lon;timestamp;P1;durP1;ratioP1;P2;durP2;ratioP2
40793;SDS011;26502;51.886;15.604;2023-02-10T00:02:51;24.00;;;14.00;;
40793;SDS011;26502;51.886;15.604;2023-02-10T00:07:59;24.60;;;13.30;;
40793;SDS011;26502;51.886;15.604;2023-02-10T00:13:08;28.60;;;14.80;;
40793;SDS011;26502;51.886;15.604;2023-02-10T00:18:15;30.70;;;15.20;;
40793;SDS011;26502;51.886;15.604;2023-02-10T00:23:22;28.20;;;14.60;;
40793;SDS011;26502;51.886;15.604;2023-02-10T00:28:31;27.80;;;15.40;;
40793;SDS011;26502;51.886;15.604;2023-02-10T00:33:39;25.00;;;13.40;;
40793;SDS011;26502;51.886;15.604;2023-02-10T00:38:47;27.30;;;14.50;;
40793;SDS011;26502;51.886;15.604;2023-02-10T00:43:54;23.90;;;13.90;;
40793;SDS011;26502;51.886;15.604;2023-02-10T00:49:02;22.50;;;13.10;;
40793;SDS011;26502;51.886;15.604;2023-02-10T00:59:18;26.00;;;13.20;;
40793;SDS011;26502;51.886;15.604;2023-02-10T01:04:25;27.30;;;12.70;;
40793;SDS011;26502;51.886;15.604;2023-02-10T01:09:32;29.40;;;14.70;;
40793;SDS011;26502;51.886;15.604;2023-02-10T01:14:40;27.00;;;13.30;;
40793;SDS011;26502;51.886;15.604;2023-02-10T01:19:48;24.90;;;13.20;;
40793;SDS011;26502;51.886;15.604;2023-02-10T01:24:56;23.80;;;12.80;;
40793;SDS011;26502;51.886;15.604;2023-02-10T01:30:04;24.00;;;13.10;;
40793;SDS011;26502;51.886;15.604;2023-02-10T01:35:13;21.80;;;12.00;;
40793;SDS011;26502;51.886;15.604;2023-02-10T01:40:20;26.70;;;12.80;;
40793;SDS011;26502;51.886;15.604;2023-02-10T01:45:29;25.90;;;13.20;;
40793;SDS011;26502;51.886;15.604;2023-02-10T01:50:39;20.80;;;10.40;;
40793;SDS011;26502;51.886;15.604;2023-02-10T01:55:51;22.80;;;13.10;;
40793;SDS011;26502;51.886;15.604;2023-02-10T02:01:02;21.40;;;13.00;;
40793;SDS011;26502;51.886;15.604;2023-02-10T02:06:10;25.90;;;13.70;;
40793;SDS011;26502;51.886;15.604;2023-02-10T02:11:20;25.20;;;12.90;;
40793;SDS011;26502;51.886;15.604;2023-02-10T02:16:54;22.70;;;11.70;;
40793;SDS011;26502;51.886;15.604;2023-02-10T02:22:21;24.30;;;12.10;;
40793;SDS011;26502;51.886;15.604;2023-02-10T02:27:57;26.40;;;12.30;;
40793;SDS011;26502;51.886;15.604;2023-02-10T02:33:16;24.60;;;12.70;;
40793;SDS011;26502;51.886;15.604;2023-02-10T02:38:28;24.10;;;13.00;;
40793;SDS011;26502;51.886;15.604;2023-02-10T02:43:42;28.50;;;13.00;;
40793;SDS011;26502;51.886;15.604;2023-02-10T02:48:53;22.40;;;12.40;;
40793;SDS011;26502;51.886;15.604;2023-02-10T02:54:12;24.80;;;12.10;;
40793;SDS011;26502;51.886;15.604;2023-02-10T02:59:25;20.40;;;11.90;;
40793;SDS011;26502;51.886;15.604;2023-02-10T03:04:42;25.00;;;12.70;;
40793;SDS011;26502;51.886;15.604;2023-02-10T03:09:51;19.30;;;8.20;;
40793;SDS011;26502;51.886;15.604;2023-02-10T03:15:00;26.30;;;11.90;;
40793;SDS011;26502;51.886;15.604;2023-02-10T03:20:08;22.10;;;11.30;;
40793;SDS011;26502;51.886;15.604;2023-02-10T03:25:17;24.40;;;11.50;;
40793;SDS011;26502;51.886;15.604;2023-02-10T03:30:26;19.00;;;11.70;;
40793;SDS011;26502;51.886;15.604;2023-02-10T03:35:36;17.50;;;8.70;;
40793;SDS011;26502;51.886;15.604;2023-02-10T03:40:43;22.30;;;11.50;;
40793;SDS011;26502;51.886;15.604;2023-02-10T03:45:53;21.50;;;11.80;;
40793;SDS011;26502;51.886;15.604;2023-02-10T03:51:05;21.10;;;11.30;;
40793;SDS011;26502;51.886;15.604;2023-02-10T03:56:13;22.70;;;10.20;;
40793;SDS011;26502;51.886;15.604;2023-02-10T04:01:20;22.00;;;12.40;;
40793;SDS011;26502;51.886;15.604;2023-02-10T04:06:27;19.80;;;10.20;;
40793;SDS011;26502;51.886;15.604;2023-02-10T04:11:34;19.50;;;11.70;;
40793;SDS011;26502;51.886;15.604;2023-02-10T04:16:41;21.80;;;13.10;;
40793;SDS011;26502;51.886;15.604;2023-02-10T04:21:49;23.90;;;13.20;;
40793;SDS011;26502;51.886;15.604;2023-02-10T04:26:56;23.60;;;11.90;;
40793;SDS011;26502;51.886;15.604;2023-02-10T04:32:04;25.50;;;13.80;;
40793;SDS011;26502;51.886;15.604;2023-02-10T04:37:11;24.40;;;11.90;;
40793;SDS011;26502;51.886;15.604;2023-02-10T04:42:19;28.00;;;14.30;;
40793;SDS011;26502;51.886;15.604;2023-02-10T04:47:33;26.10;;;11.90;;
40793;SDS011;26502;51.886;15.604;2023-02-10T04:52:43;28.10;;;15.70;;
40793;SDS011;26502;51.886;15.604;2023-02-10T04:57:50;27.00;;;14.80;;
40793;SDS011;26502;51.886;15.604;2023-02-10T05:02:58;26.00;;;14.40;;
40793;SDS011;26502;51.886;15.604;2023-02-10T05:08:06;28.10;;;15.10;;
40793;SDS011;26502;51.886;15.604;2023-02-10T05:13:13;25.80;;;14.00;;
40793;SDS011;26502;51.886;15.604;2023-02-10T05:18:20;33.60;;;16.70;;
40793;SDS011;26502;51.886;15.604;2023-02-10T05:23:28;34.70;;;15.10;;
40793;SDS011;26502;51.886;15.604;2023-02-10T05:28:36;30.10;;;15.50;;
40793;SDS011;26502;51.886;15.604;2023-02-10T05:33:43;22.40;;;12.50;;
40793;SDS011;26502;51.886;15.604;2023-02-10T05:38:52;27.20;;;15.20;;
40793;SDS011;26502;51.886;15.604;2023-02-10T05:44:17;28.60;;;13.70;;
40793;SDS011;26502;51.886;15.604;2023-02-10T05:49:26;25.80;;;15.00;;
40793;SDS011;26502;51.886;15.604;2023-02-10T05:54:35;22.90;;;10.50;;
40793;SDS011;26502;51.886;15.604;2023-02-10T05:59:44;32.60;;;16.40;;
40793;SDS011;26502;51.886;15.604;2023-02-10T06:04:51;31.60;;;16.40;;
40793;SDS011;26502;51.886;15.604;2023-02-10T06:09:58;29.40;;;13.10;;
40793;SDS011;26502;51.886;15.604;2023-02-10T06:15:06;28.40;;;16.20;;
40793;SDS011;26502;51.886;15.604;2023-02-10T06:20:14;25.70;;;15.30;;
40793;SDS011;26502;51.886;15.604;2023-02-10T06:25:23;29.30;;;16.30;;
40793;SDS011;26502;51.886;15.604;2023-02-10T06:30:32;31.00;;;17.60;;
40793;SDS011;26502;51.886;15.604;2023-02-10T06:35:39;33.20;;;17.30;;
40793;SDS011;26502;51.886;15.604;2023-02-10T06:40:46;30.00;;;18.00;;
40793;SDS011;26502;51.886;15.604;2023-02-10T06:45:54;34.20;;;18.10;;
40793;SDS011;26502;51.886;15.604;2023-02-10T06:51:02;31.80;;;16.40;;
40793;SDS011;26502;51.886;15.604;2023-02-10T06:56:09;37.70;;;17.70;;
40793;SDS011;26502;51.886;15.604;2023-02-10T07:01:17;30.60;;;16.70;;
40793;SDS011;26502;51.886;15.604;2023-02-10T07:06:25;34.00;;;17.20;;
40793;SDS011;26502;51.886;15.604;2023-02-10T07:11:33;28.70;;;12.20;;
40793;SDS011;26502;51.886;15.604;2023-02-10T07:16:40;36.30;;;18.80;;
40793;SDS011;26502;51.886;15.604;2023-02-10T07:21:48;38.90;;;18.20;;
40793;SDS011;26502;51.886;15.604;2023-02-10T07:26:55;48.40;;;22.50;;
40793;SDS011;26502;51.886;15.604;2023-02-10T07:32:03;39.50;;;19.80;;
40793;SDS011;26502;51.886;15.604;2023-02-10T07:37:11;40.40;;;20.30;;
40793;SDS011;26502;51.886;15.604;2023-02-10T07:42:18;37.60;;;20.80;;
40793;SDS011;26502;51.886;15.604;2023-02-10T07:47:37;35.20;;;18.30;;
40793;SDS011;26502;51.886;15.604;2023-02-10T07:52:45;27.50;;;11.60;;
40793;SDS011;26502;51.886;15.604;2023-02-10T07:57:52;38.20;;;19.30;;
40793;SDS011;26502;51.886;15.604;2023-02-10T08:03:00;34.30;;;16.30;;
40793;SDS011;26502;51.886;15.604;2023-02-10T08:08:08;39.00;;;20.90;;
40793;SDS011;26502;51.886;15.604;2023-02-10T08:13:15;35.90;;;17.60;;
40793;SDS011;26502;51.886;15.604;2023-02-10T08:18:23;43.00;;;21.80;;
40793;SDS011;26502;51.886;15.604;2023-02-10T08:23:31;35.50;;;19.10;;
40793;SDS011;26502;51.886;15.604;2023-02-10T08:28:39;39.60;;;21.00;;
40793;SDS011;26502;51.886;15.604;2023-02-10T08:33:47;37.30;;;17.00;;
40793;SDS011;26502;51.886;15.604;2023-02-10T08:38:54;33.00;;;16.80;;
40793;SDS011;26502;51.886;15.604;2023-02-10T08:44:03;30.50;;;16.00;;
40793;SDS011;26502;51.886;15.604;2023-02-10T08:54:19;38.00;;;18.30;;
40793;SDS011;26502;51.886;15.604;2023-02-10T08:59:28;35.80;;;20.00;;
40793;SDS011;26502;51.886;15.604;2023-02-10T09:04:35;39.00;;;20.30;;
40793;SDS011;26502;51.886;15.604;2023-02-10T09:09:43;37.60;;;17.70;;
40793;SDS011;26502;51.886;15.604;2023-02-10T09:14:51;39.90;;;20.20;;
40793;SDS011;26502;51.886;15.604;2023-02-10T09:20:00;35.30;;;16.80;;
40793;SDS011;26502;51.886;15.604;2023-02-10T09:25:09;39.90;;;17.50;;
40793;SDS011;26502;51.886;15.604;2023-02-10T09:30:16;37.60;;;19.40;;
40793;SDS011;26502;51.886;15.604;2023-02-10T09:35:24;41.60;;;20.50;;
40793;SDS011;26502;51.886;15.604;2023-02-10T09:40:32;35.30;;;19.60;;
40793;SDS011;26502;51.886;15.604;2023-02-10T09:45:44;41.60;;;22.30;;
40793;SDS011;26502;51.886;15.604;2023-02-10T09:51:01;25.70;;;11.10;;
40793;SDS011;26502;51.886;15.604;2023-02-10T09:56:19;36.30;;;15.90;;
40793;SDS011;26502;51.886;15.604;2023-02-10T10:01:29;32.30;;;18.60;;
40793;SDS011;26502;51.886;15.604;2023-02-10T10:06:42;38.90;;;19.70;;
40793;SDS011;26502;51.886;15.604;2023-02-10T10:11:51;39.30;;;19.20;;
40793;SDS011;26502;51.886;15.604;2023-02-10T10:22:45;33.60;;;16.40;;
40793;SDS011;26502;51.886;15.604;2023-02-10T10:28:02;34.90;;;19.40;;
40793;SDS011;26502;51.886;15.604;2023-02-10T10:33:25;39.40;;;19.30;;
40793;SDS011;26502;51.886;15.604;2023-02-10T10:38:38;40.30;;;18.80;;
40793;SDS011;26502;51.886;15.604;2023-02-10T10:43:51;43.70;;;20.20;;
40793;SDS011;26502;51.886;15.604;2023-02-10T10:49:01;43.20;;;20.30;;
40793;SDS011;26502;51.886;15.604;2023-02-10T10:54:11;27.00;;;11.90;;
40793;SDS011;26502;51.886;15.604;2023-02-10T10:59:26;47.30;;;21.80;;
40793;SDS011;26502;51.886;15.604;2023-02-10T11:09:51;79.80;;;28.10;;
40793;SDS011;26502;51.886;15.604;2023-02-10T11:14:59;55.20;;;27.20;;
40793;SDS011;26502;51.886;15.604;2023-02-10T11:20:20;24.90;;;10.60;;
40793;SDS011;26502;51.886;15.604;2023-02-10T11:25:33;33.70;;;16.80;;
40793;SDS011;26502;51.886;15.604;2023-02-10T11:30:42;53.70;;;22.10;;
40793;SDS011;26502;51.886;15.604;2023-02-10T11:35:52;40.20;;;20.10;;
40793;SDS011;26502;51.886;15.604;2023-02-10T11:41:07;41.70;;;20.70;;
40793;SDS011;26502;51.886;15.604;2023-02-10T11:46:20;35.50;;;16.80;;
40793;SDS011;26502;51.886;15.604;2023-02-10T11:51:29;25.40;;;11.40;;
40793;SDS011;26502;51.886;15.604;2023-02-10T11:56:40;40.10;;;17.00;;
40793;SDS011;26502;51.886;15.604;2023-02-10T12:02:12;34.50;;;17.20;;
40793;SDS011;26502;51.886;15.604;2023-02-10T12:07:37;53.10;;;21.50;;
40793;SDS011;26502;51.886;15.604;2023-02-10T12:12:55;62.70;;;26.40;;
40793;SDS011;26502;51.886;15.604;2023-02-10T12:18:16;57.70;;;22.20;;
40793;SDS011;26502;51.886;15.604;2023-02-10T12:29:04;25.90;;;14.50;;
40793;SDS011;26502;51.886;15.604;2023-02-10T12:34:29;45.70;;;20.40;;
40793;SDS011;26502;51.886;15.604;2023-02-10T12:39:50;22.70;;;9.30;;
40793;SDS011;26502;51.886;15.604;2023-02-10T12:45:04;53.00;;;23.70;;
40793;SDS011;26502;51.886;15.604;2023-02-10T12:50:28;35.00;;;15.80;;
40793;SDS011;26502;51.886;15.604;2023-02-10T12:55:53;41.20;;;18.60;;
40793;SDS011;26502;51.886;15.604;2023-02-10T13:01:08;20.90;;;10.20;;
40793;SDS011;26502;51.886;15.604;2023-02-10T13:06:24;27.00;;;14.30;;
40793;SDS011;26502;51.886;15.604;2023-02-10T13:11:35;39.10;;;18.60;;
40793;SDS011;26502;51.886;15.604;2023-02-10T13:16:49;41.80;;;18.80;;
40793;SDS011;26502;51.886;15.604;2023-02-10T13:22:00;44.10;;;21.40;;
40793;SDS011;26502;51.886;15.604;2023-02-10T13:27:19;58.70;;;25.40;;
40793;SDS011;26502;51.886;15.604;2023-02-10T13:32:48;54.90;;;25.40;;
40793;SDS011;26502;51.886;15.604;2023-02-10T13:38:08;53.70;;;20.30;;
40793;SDS011;26502;51.886;15.604;2023-02-10T13:43:27;32.00;;;15.10;;
40793;SDS011;26502;51.886;15.604;2023-02-10T13:48:38;26.60;;;14.60;;
40793;SDS011;26502;51.886;15.604;2023-02-10T13:53:46;40.10;;;18.90;;
40793;SDS011;26502;51.886;15.604;2023-02-10T13:58:55;39.80;;;19.00;;
40793;SDS011;26502;51.886;15.604;2023-02-10T14:04:08;29.30;;;13.40;;
40793;SDS011;26502;51.886;15.604;2023-02-10T14:09:46;37.20;;;17.80;;
40793;SDS011;26502;51.886;15.604;2023-02-10T14:14:54;25.90;;;13.10;;
40793;SDS011;26502;51.886;15.604;2023-02-10T14:20:02;36.70;;;16.20;;
40793;SDS011;26502;51.886;15.604;2023-02-10T14:25:25;39.90;;;20.40;;
40793;SDS011;26502;51.886;15.604;2023-02-10T14:30:41;35.40;;;18.90;;
40793;SDS011;26502;51.886;15.604;2023-02-10T14:35:52;40.20;;;18.90;;
40793;SDS011;26502;51.886;15.604;2023-02-10T14:41:03;43.70;;;21.20;;
40793;SDS011;26502;51.886;15.604;2023-02-10T14:46:18;36.50;;;18.70;;
40793;SDS011;26502;51.886;15.604;2023-02-10T14:51:29;40.00;;;24.60;;
40793;SDS011;26502;51.886;15.604;2023-02-10T14:56:50;42.40;;;20.60;;
40793;SDS011;26502;51.886;15.604;2023-02-10T15:02:03;44.20;;;22.40;;
40793;SDS011;26502;51.886;15.604;2023-02-10T15:07:22;42.10;;;19.50;;
40793;SDS011;26502;51.886;15.604;2023-02-10T15:12:35;32.20;;;16.60;;
40793;SDS011;26502;51.886;15.604;2023-02-10T15:17:46;77.60;;;31.40;;
40793;SDS011;26502;51.886;15.604;2023-02-10T15:23:13;56.80;;;23.30;;
40793;SDS011;26502;51.886;15.604;2023-02-10T15:28:25;57.30;;;23.30;;
40793;SDS011;26502;51.886;15.604;2023-02-10T15:33:36;75.50;;;30.80;;
40793;SDS011;26502;51.886;15.604;2023-02-10T15:38:57;53.90;;;27.30;;
40793;SDS011;26502;51.886;15.604;2023-02-10T15:44:30;50.30;;;23.70;;
40793;SDS011;26502;51.886;15.604;2023-02-10T15:49:43;49.30;;;24.00;;
40793;SDS011;26502;51.886;15.604;2023-02-10T16:00:05;51.60;;;23.60;;
40793;SDS011;26502;51.886;15.604;2023-02-10T16:05:18;68.90;;;31.00;;
40793;SDS011;26502;51.886;15.604;2023-02-10T16:10:28;70.70;;;35.30;;
40793;SDS011;26502;51.886;15.604;2023-02-10T16:15:42;41.00;;;22.10;;
40793;SDS011;26502;51.886;15.604;2023-02-10T16:20:55;89.90;;;39.10;;
40793;SDS011;26502;51.886;15.604;2023-02-10T16:26:06;54.30;;;24.40;;
40793;SDS011;26502;51.886;15.604;2023-02-10T16:31:22;50.40;;;25.90;;
40793;SDS011;26502;51.886;15.604;2023-02-10T16:36:32;72.10;;;28.70;;
40793;SDS011;26502;51.886;15.604;2023-02-10T16:41:42;60.20;;;29.20;;
40793;SDS011;26502;51.886;15.604;2023-02-10T16:46:50;197.70;;;70.30;;
40793;SDS011;26502;51.886;15.604;2023-02-10T16:51:59;106.20;;;36.60;;
40793;SDS011;26502;51.886;15.604;2023-02-10T16:57:09;97.90;;;35.10;;
40793;SDS011;26502;51.886;15.604;2023-02-10T17:02:20;60.50;;;25.70;;
40793;SDS011;26502;51.886;15.604;2023-02-10T17:07:29;94.80;;;40.40;;
40793;SDS011;26502;51.886;15.604;2023-02-10T17:12:38;55.70;;;25.40;;
40793;SDS011;26502;51.886;15.604;2023-02-10T17:17:48;49.20;;;24.80;;
40793;SDS011;26502;51.886;15.604;2023-02-10T17:22:58;52.60;;;24.30;;
40793;SDS011;26502;51.886;15.604;2023-02-10T17:28:09;59.30;;;29.30;;
40793;SDS011;26502;51.886;15.604;2023-02-10T17:33:24;53.60;;;25.40;;
40793;SDS011;26502;51.886;15.604;2023-02-10T17:38:39;69.50;;;31.40;;
40793;SDS011;26502;51.886;15.604;2023-02-10T17:43:57;58.70;;;27.20;;
40793;SDS011;26502;51.886;15.604;2023-02-10T17:54:13;68.60;;;30.00;;
40793;SDS011;26502;51.886;15.604;2023-02-10T17:59:25;73.30;;;32.70;;
40793;SDS011;26502;51.886;15.604;2023-02-10T18:04:36;69.20;;;30.80;;
40793;SDS011;26502;51.886;15.604;2023-02-10T18:10:02;89.30;;;35.50;;
40793;SDS011;26502;51.886;15.604;2023-02-10T18:15:15;116.80;;;42.10;;
40793;SDS011;26502;51.886;15.604;2023-02-10T18:20:29;86.70;;;37.60;;
40793;SDS011;26502;51.886;15.604;2023-02-10T18:25:42;79.60;;;36.70;;
40793;SDS011;26502;51.886;15.604;2023-02-10T18:31:00;74.40;;;31.60;;
40793;SDS011;26502;51.886;15.604;2023-02-10T18:36:11;83.90;;;34.90;;
40793;SDS011;26502;51.886;15.604;2023-02-10T18:41:23;98.20;;;42.50;;
40793;SDS011;26502;51.886;15.604;2023-02-10T18:46:36;115.80;;;44.60;;
40793;SDS011;26502;51.886;15.604;2023-02-10T18:51:46;127.90;;;49.70;;
40793;SDS011;26502;51.886;15.604;2023-02-10T18:57:00;102.20;;;43.00;;
40793;SDS011;26502;51.886;15.604;2023-02-10T19:02:10;96.90;;;40.60;;
40793;SDS011;26502;51.886;15.604;2023-02-10T19:07:27;91.60;;;38.10;;
40793;SDS011;26502;51.886;15.604;2023-02-10T19:12:37;108.10;;;39.50;;
40793;SDS011;26502;51.886;15.604;2023-02-10T19:17:48;68.70;;;28.30;;
40793;SDS011;26502;51.886;15.604;2023-02-10T19:23:00;101.20;;;40.80;;
40793;SDS011;26502;51.886;15.604;2023-02-10T19:28:11;66.10;;;31.90;;
40793;SDS011;26502;51.886;15.604;2023-02-10T19:33:21;65.60;;;33.20;;
40793;SDS011;26502;51.886;15.604;2023-02-10T19:38:33;60.60;;;28.20;;
40793;SDS011;26502;51.886;15.604;2023-02-10T19:43:48;70.00;;;31.20;;
40793;SDS011;26502;51.886;15.604;2023-02-10T19:49:01;80.90;;;35.60;;
40793;SDS011;26502;51.886;15.604;2023-02-10T19:54:12;71.80;;;36.10;;
40793;SDS011;26502;51.886;15.604;2023-02-10T19:59:32;96.70;;;40.20;;
40793;SDS011;26502;51.886;15.604;2023-02-10T20:04:41;80.70;;;36.70;;
40793;SDS011;26502;51.886;15.604;2023-02-10T20:09:51;72.40;;;33.60;;
40793;SDS011;26502;51.886;15.604;2023-02-10T20:15:01;61.70;;;30.80;;
40793;SDS011;26502;51.886;15.604;2023-02-10T20:20:13;70.40;;;34.60;;
40793;SDS011;26502;51.886;15.604;2023-02-10T20:25:24;64.90;;;31.30;;
40793;SDS011;26502;51.886;15.604;2023-02-10T20:30:34;61.20;;;31.90;;
40793;SDS011;26502;51.886;15.604;2023-02-10T20:35:45;65.80;;;32.80;;
40793;SDS011;26502;51.886;15.604;2023-02-10T20:40:57;64.40;;;28.70;;
40793;SDS011;26502;51.886;15.604;2023-02-10T20:46:10;71.50;;;31.70;;
40793;SDS011;26502;51.886;15.604;2023-02-10T20:51:23;65.40;;;31.40;;
40793;SDS011;26502;51.886;15.604;2023-02-10T20:56:37;67.00;;;30.20;;
40793;SDS011;26502;51.886;15.604;2023-02-10T21:01:51;66.60;;;32.30;;
40793;SDS011;26502;51.886;15.604;2023-02-10T21:07:02;76.60;;;36.00;;
40793;SDS011;26502;51.886;15.604;2023-02-10T21:12:14;77.70;;;36.50;;
40793;SDS011;26502;51.886;15.604;2023-02-10T21:17:25;76.70;;;36.70;;
40793;SDS011;26502;51.886;15.604;2023-02-10T21:22:34;64.70;;;32.70;;
40793;SDS011;26502;51.886;15.604;2023-02-10T21:27:44;61.40;;;33.00;;
40793;SDS011;26502;51.886;15.604;2023-02-10T21:32:58;76.80;;;40.10;;
40793;SDS011;26502;51.886;15.604;2023-02-10T21:38:11;60.40;;;29.10;;
40793;SDS011;26502;51.886;15.604;2023-02-10T21:43:24;67.50;;;34.40;;
40793;SDS011;26502;51.886;15.604;2023-02-10T21:48:38;108.50;;;47.70;;
40793;SDS011;26502;51.886;15.604;2023-02-10T21:53:46;76.80;;;35.60;;
40793;SDS011;26502;51.886;15.604;2023-02-10T21:58:54;69.70;;;33.80;;
40793;SDS011;26502;51.886;15.604;2023-02-10T22:04:03;61.10;;;28.00;;
40793;SDS011;26502;51.886;15.604;2023-02-10T22:09:12;77.50;;;34.60;;
40793;SDS011;26502;51.886;15.604;2023-02-10T22:14:21;69.30;;;30.00;;
40793;SDS011;26502;51.886;15.604;2023-02-10T22:19:28;53.70;;;25.00;;
40793;SDS011;26502;51.886;15.604;2023-02-10T22:24:36;56.60;;;25.40;;
40793;SDS011;26502;51.886;15.604;2023-02-10T22:29:44;38.10;;;19.70;;
40793;SDS011;26502;51.886;15.604;2023-02-10T22:34:52;38.60;;;20.50;;
40793;SDS011;26502;51.886;15.604;2023-02-10T22:40:01;40.90;;;21.50;;
40793;SDS011;26502;51.886;15.604;2023-02-10T22:45:10;45.10;;;22.30;;
40793;SDS011;26502;51.886;15.604;2023-02-10T22:50:18;44.00;;;21.20;;
40793;SDS011;26502;51.886;15.604;2023-02-10T22:55:25;40.90;;;22.60;;
40793;SDS011;26502;51.886;15.604;2023-02-10T23:00:33;42.40;;;24.00;;
40793;SDS011;26502;51.886;15.604;2023-02-10T23:05:43;36.20;;;20.60;;
40793;SDS011;26502;51.886;15.604;2023-02-10T23:10:50;50.90;;;25.30;;
40793;SDS011;26502;51.886;15.604;2023-02-10T23:15:59;62.80;;;26.10;;
40793;SDS011;26502;51.886;15.604;2023-02-10T23:21:09;44.60;;;24.10;;
40793;SDS011;26502;51.886;15.604;2023-02-10T23:26:21;55.30;;;24.80;;
40793;SDS011;26502;51.886;15.604;2023-02-10T23:31:30;37.30;;;21.10;;
40793;SDS011;26502;51.886;15.604;2023-02-10T23:36:37;41.00;;;20.50;;
40793;SDS011;26502;51.886;15.604;2023-02-10T23:41:45;57.90;;;29.20;;
40793;SDS011;26502;51.886;15.604;2023-02-10T23:46:53;81.50;;;32.50;;
40793;SDS011;26502;51.886;15.604;2023-02-10T23:52:01;41.30;;;19.80;;
40793;SDS011;26502;51.886;15.604;2023-02-10T23:57:12;44.40;;;22.90;;
